Time;durP1;ratioP1;P1;durP2;ratioP2;P2;SDS_P1;SDS_P2;PMS_P1;PMS_P2;Temp;Humidity;BMP_temperature;BMP_pressure;BME280_temperature;BME280_humidity;BME280_pressure;Samples;Min_cycle;Max_cycle;Signal;HPM_P1;HPM_P2
2022/08/22 00:00:56;;;;;;;11.80;6.40;;;17.10;95.00;;;;;;5011070;28;20488;-59
2022/08/22 00:03:34;;;;;;;5.83;5.07;;;17.10;95.30;;;;;;4998338;28;20979;-59
2022/08/22 00:06:11;;;;;;;9.93;6.77;;;17.10;95.50;;;;;;5015004;28;20512;-57
2022/08/22 00:08:49;;;;;;;8.20;5.97;;;17.10;95.80;;;;;;5012843;28;20468;-58
2022/08/22 00:11:25;;;;;;;7.10;6.10;;;17.10;96.00;;;;;;5011651;28;20560;-57
2022/08/22 00:14:00;;;;;;;6.80;5.07;;;17.00;96.20;;;;;;5012695;28;20461;-58
2022/08/22 00:16:33;;;;;;;7.10;5.70;;;17.00;96.50;;;;;;5011602;28;20472;-59
2022/08/22 00:19:12;;;;;;;9.60;6.03;;;16.90;96.70;;;;;;5012461;28;20529;-60
2022/08/22 00:21:47;;;;;;;8.23;6.13;;;16.90;96.90;;;;;;5013542;28;20466;-59
2022/08/22 00:24:24;;;;;;;8.13;6.10;;;16.90;97.10;;;;;;5012078;28;20457;-60
2022/08/22 00:26:59;;;;;;;6.80;5.50;;;16.90;97.30;;;;;;4998513;28;20461;-59
2022/08/22 00:29:33;;;;;;;8.80;6.00;;;16.90;97.50;;;;;;5015699;28;20544;-59
2022/08/22 00:32:10;;;;;;;6.43;5.83;;;16.80;97.60;;;;;;5016128;28;20528;-59
2022/08/22 00:34:47;;;;;;;13.17;5.97;;;16.80;97.90;;;;;;5016827;28;20469;-59
2022/08/22 00:37:22;;;;;;;6.33;5.10;;;16.80;98.10;;;;;;5017148;28;20507;-58
2022/08/22 00:39:55;;;;;;;9.23;5.40;;;16.80;98.30;;;;;;5017113;28;20563;-59
2022/08/22 00:42:45;;;;;;;10.20;5.13;;;16.70;98.40;;;;;;5016531;28;20549;-59
2022/08/22 00:46:01;;;;;;;7.00;5.70;;;16.70;98.60;;;;;;5016887;28;20537;-59
2022/08/22 00:48:47;;;;;;;10.07;5.40;;;16.60;98.70;;;;;;4955623;29;20923;-59
2022/08/22 00:51:52;;;;;;;6.60;5.80;;;16.60;98.90;;;;;;4990774;28;20572;-59
2022/08/22 00:54:33;;;;;;;6.60;5.10;;;16.60;99.10;;;;;;4998680;28;20433;-60
2022/08/22 00:57:24;;;;;;;8.00;5.40;;;16.60;99.20;;;;;;5015304;28;20473;-59
2022/08/22 01:00:05;;;;;;;6.43;5.93;;;16.50;99.20;;;;;;5016962;28;21053;-60
2022/08/22 01:02:49;;;;;;;6.50;5.57;;;16.50;99.40;;;;;;5015300;28;20458;-58
2022/08/22 01:05:44;;;;;;;6.70;4.73;;;16.50;99.50;;;;;;5015837;28;20461;-61
2022/08/22 01:08:31;;;;;;;6.03;5.40;;;16.50;99.70;;;;;;5008635;28;20466;-59
2022/08/22 01:11:14;;;;;;;7.63;5.33;;;16.40;99.70;;;;;;4997488;28;20790;-59
2022/08/22 01:13:56;;;;;;;9.80;6.70;;;16.40;99.90;;;;;;5013334;28;20490;-59
2022/08/22 01:16:42;;;;;;;5.73;4.90;;;16.40;99.90;;;;;;5015763;28;20560;-59
2022/08/22 01:19:30;;;;;;;7.90;6.00;;;16.40;99.90;;;;;;5016251;28;20544;-59
2022/08/22 01:22:25;;;;;;;7.23;5.70;;;16.30;99.90;;;;;;5013487;28;20468;-61
2022/08/22 01:25:27;;;;;;;5.80;5.17;;;16.30;99.90;;;;;;5010221;28;20457;-60
2022/08/22 01:28:33;;;;;;;7.37;5.40;;;16.20;99.90;;;;;;5015462;28;20553;-59
2022/08/22 01:31:31;;;;;;;8.73;4.97;;;16.20;99.90;;;;;;5015386;28;21055;-60
2022/08/22 01:34:34;;;;;;;6.60;5.17;;;16.10;99.90;;;;;;5015582;28;20961;-59
2022/08/22 01:37:21;;;;;;;6.00;5.37;;;16.10;99.90;;;;;;5011442;28;20833;-59
2022/08/22 01:40:21;;;;;;;5.77;5.13;;;16.00;99.90;;;;;;5016200;28;20557;-59
2022/08/22 01:42:59;;;;;;;8.40;5.17;;;16.00;99.90;;;;;;5013113;28;20501;-58
2022/08/22 01:46:00;;;;;;;9.47;5.60;;;15.90;99.90;;;;;;5016221;28;20536;-58
2022/08/22 01:48:35;;;;;;;6.67;5.90;;;15.90;99.90;;;;;;5014991;28;20541;-59
2022/08/22 01:51:13;;;;;;;8.60;6.80;;;15.80;99.90;;;;;;5014321;28;20489;-58
2022/08/22 01:53:54;;;;;;;7.57;5.97;;;15.80;99.90;;;;;;5014176;28;20617;-58
2022/08/22 01:56:24;;;;;;;6.70;5.93;;;15.70;99.90;;;;;;5015728;28;20478;-59
2022/08/22 01:58:57;;;;;;;7.20;6.30;;;15.70;99.90;;;;;;5014612;28;20974;-58
2022/08/22 02:01:36;;;;;;;8.03;5.67;;;15.60;99.90;;;;;;5013999;28;21006;-58
2022/08/22 02:04:13;;;;;;;8.20;5.53;;;15.60;99.90;;;;;;5015522;28;20544;-58
2022/08/22 02:06:47;;;;;;;8.10;6.13;;;15.60;99.90;;;;;;5015717;28;20437;-57
2022/08/22 02:09:30;;;;;;;6.57;5.80;;;15.60;99.90;;;;;;4999752;28;20458;-57
2022/08/22 02:12:11;;;;;;;12.30;5.73;;;15.50;99.90;;;;;;5014981;28;20449;-58
2022/08/22 02:14:43;;;;;;;9.17;7.20;;;15.50;99.90;;;;;;5015829;28;20822;-57
2022/08/22 02:17:19;;;;;;;6.80;5.83;;;15.50;99.90;;;;;;5015046;28;20565;-57
2022/08/22 02:19:51;;;;;;;6.60;5.97;;;15.50;99.90;;;;;;5014555;28;20942;-59
2022/08/22 02:22:31;;;;;;;7.33;5.33;;;15.40;99.90;;;;;;5014792;28;20545;-57
2022/08/22 02:25:08;;;;;;;7.13;5.57;;;15.40;99.90;;;;;;5013714;28;20454;-57
2022/08/22 02:27:43;;;;;;;9.27;5.10;;;15.40;99.90;;;;;;5014743;28;20465;-58
2022/08/22 02:30:14;;;;;;;5.97;5.47;;;15.40;99.90;;;;;;5013283;28;20493;-57
2022/08/22 02:32:53;;;;;;;6.27;5.67;;;15.30;99.90;;;;;;5013609;28;20536;-58
2022/08/22 02:35:27;;;;;;;6.77;5.70;;;15.30;99.90;;;;;;5015075;28;20474;-57
2022/08/22 02:38:22;;;;;;;6.00;5.40;;;15.30;99.90;;;;;;5014051;28;20497;-57
2022/08/22 02:41:04;;;;;;;7.03;5.37;;;15.30;99.90;;;;;;5001613;28;20482;-58
2022/08/22 02:43:42;;;;;;;6.13;4.80;;;15.30;99.90;;;;;;5002744;28;20454;-57
2022/08/22 02:46:19;;;;;;;6.30;5.37;;;15.30;99.90;;;;;;5014748;28;20499;-57
2022/08/22 02:48:54;;;;;;;8.23;5.40;;;15.30;99.90;;;;;;5012479;28;20457;-59
2022/08/22 02:51:30;;;;;;;6.00;5.10;;;15.30;99.90;;;;;;5014979;28;20456;-59
2022/08/22 02:54:07;;;;;;;8.13;5.50;;;15.30;99.90;;;;;;5013026;28;20461;-60
2022/08/22 02:56:41;;;;;;;5.93;5.00;;;15.30;99.90;;;;;;5008303;28;20594;-57
2022/08/22 02:59:24;;;;;;;9.10;5.80;;;15.30;99.90;;;;;;5013486;28;20454;-60
2022/08/22 03:01:52;;;;;;;7.60;5.17;;;15.20;99.90;;;;;;5013370;28;21042;-57
2022/08/22 03:04:27;;;;;;;6.40;5.80;;;15.30;99.90;;;;;;5013519;28;20552;-57
2022/08/22 03:07:13;;;;;;;9.30;5.60;;;15.30;99.90;;;;;;5013567;28;20509;-58
2022/08/22 03:09:46;;;;;;;8.17;6.03;;;15.30;99.90;;;;;;5012288;28;20546;-58
2022/08/22 03:12:21;;;;;;;6.70;5.20;;;15.30;99.90;;;;;;5012842;28;20476;-57
2022/08/22 03:14:57;;;;;;;6.50;5.90;;;15.30;99.90;;;;;;5013173;28;20545;-57
2022/08/22 03:17:30;;;;;;;8.23;5.60;;;15.30;99.90;;;;;;5013721;28;20469;-59
2022/08/22 03:20:05;;;;;;;6.10;5.50;;;15.20;99.90;;;;;;5013988;28;21019;-59
2022/08/22 03:22:42;;;;;;;6.83;5.70;;;15.20;99.90;;;;;;5003143;28;20464;-59
2022/08/22 03:25:17;;;;;;;5.70;5.20;;;15.20;99.90;;;;;;5013376;28;20485;-59
2022/08/22 03:27:54;;;;;;;7.03;5.30;;;15.20;99.90;;;;;;4997237;28;20486;-59
2022/08/22 03:30:28;;;;;;;7.47;5.73;;;15.20;99.90;;;;;;5003129;28;20497;-60
2022/08/22 03:32:58;;;;;;;15.70;5.90;;;15.20;99.90;;;;;;5014236;28;20449;-59
2022/08/22 03:35:34;;;;;;;11.13;6.63;;;15.20;99.90;;;;;;5012860;28;20486;-59
2022/08/22 03:38:18;;;;;;;7.00;4.93;;;15.20;99.90;;;;;;5012973;28;20877;-58
2022/08/22 03:41:13;;;;;;;6.80;5.23;;;15.20;99.90;;;;;;5012845;28;20565;-59
2022/08/22 03:44:04;;;;;;;6.80;5.47;;;15.20;99.90;;;;;;5011473;28;20541;-60
2022/08/22 03:46:55;;;;;;;11.10;6.17;;;15.20;99.90;;;;;;5013920;28;20902;-59
2022/08/22 03:50:01;;;;;;;12.37;6.13;;;15.20;99.90;;;;;;4998742;28;20457;-59
2022/08/22 03:53:07;;;;;;;6.80;5.87;;;15.30;99.90;;;;;;5001742;28;20458;-59
2022/08/22 03:55:52;;;;;;;6.83;6.03;;;15.20;99.90;;;;;;5011755;28;20477;-59
2022/08/22 03:58:40;;;;;;;5.97;5.07;;;15.20;99.90;;;;;;5012444;28;20549;-59
2022/08/22 04:01:40;;;;;;;10.03;6.17;;;15.10;99.90;;;;;;5010972;28;20490;-59
2022/08/22 04:04:52;;;;;;;5.77;5.23;;;15.10;99.90;;;;;;5002412;28;20480;-59
2022/08/22 04:10:41;;;;;;;8.87;6.40;;;15.00;99.90;;;;;;5098341;27;1450507;-59
2022/08/22 04:13:40;;;;;;;8.27;6.20;;;15.00;99.90;;;;;;5107717;28;20203;-60
2022/08/22 04:16:39;;;;;;;9.10;6.30;;;15.00;99.90;;;;;;5099886;28;20464;-58
2022/08/22 04:19:28;;;;;;;7.33;6.27;;;15.00;99.90;;;;;;5109763;28;20544;-60
2022/08/22 04:22:22;;;;;;;8.37;6.83;;;15.00;99.90;;;;;;5109870;28;20517;-60
2022/08/22 04:24:58;;;;;;;10.80;6.50;;;15.00;99.90;;;;;;5108029;28;20541;-60
2022/08/22 04:27:34;;;;;;;7.43;6.63;;;15.00;99.90;;;;;;5109619;28;20461;-57
2022/08/22 04:30:08;;;;;;;8.57;7.77;;;15.00;99.90;;;;;;5123113;22;20485;-57
2022/08/22 04:32:41;;;;;;;7.57;5.63;;;15.00;99.90;;;;;;5055629;28;20559;-60
2022/08/22 04:35:12;;;;;;;6.37;5.77;;;15.00;99.90;;;;;;5029825;28;20426;-60
2022/08/22 04:37:49;;;;;;;6.33;5.70;;;15.00;99.90;;;;;;5043258;28;20868;-59
2022/08/22 04:40:23;;;;;;;6.20;5.60;;;15.10;99.90;;;;;;5069453;28;20463;-60
2022/08/22 04:42:56;;;;;;;8.90;5.40;;;15.20;99.90;;;;;;5060664;28;20455;-58
2022/08/22 04:45:29;;;;;;;8.00;6.57;;;15.40;99.90;;;;;;5069597;28;20868;-60
2022/08/22 04:48:06;;;;;;;8.53;5.23;;;15.50;99.90;;;;;;5063901;28;20455;-60
2022/08/22 04:50:39;;;;;;;5.80;5.20;;;15.70;99.90;;;;;;5068644;28;20483;-59
2022/08/22 04:53:27;;;;;;;4.97;4.53;;;15.80;99.90;;;;;;5064958;28;20462;-60
2022/08/22 04:56:06;;;;;;;6.67;5.63;;;16.00;99.90;;;;;;5059212;28;20974;-60
2022/08/22 04:58:45;;;;;;;7.83;5.40;;;16.20;99.90;;;;;;5048439;28;20936;-60
2022/08/22 05:01:17;;;;;;;6.00;5.50;;;16.40;99.90;;;;;;5064342;28;20491;-60
2022/08/22 05:03:51;;;;;;;9.17;4.70;;;16.60;99.90;;;;;;5048535;28;20459;-60
2022/08/22 05:06:22;;;;;;;5.00;4.33;;;16.80;99.90;;;;;;5051673;28;20538;-59
2022/08/22 05:08:50;;;;;;;6.80;4.40;;;17.00;99.90;;;;;;5067761;28;20562;-60
2022/08/22 05:11:21;;;;;;;5.90;4.60;;;17.20;99.90;;;;;;5068028;28;20570;-59
2022/08/22 05:13:55;;;;;;;8.50;4.17;;;17.30;99.90;;;;;;5051612;28;20839;-60
2022/08/22 05:16:28;;;;;;;4.50;4.07;;;17.50;99.90;;;;;;5046783;28;20560;-60
2022/08/22 05:19:00;;;;;;;10.90;4.60;;;17.70;99.90;;;;;;5049104;28;20865;-59
2022/08/22 05:21:32;;;;;;;6.33;4.93;;;17.80;99.90;;;;;;5035650;28;20992;-60
2022/08/22 05:24:05;;;;;;;10.00;5.67;;;18.00;99.70;;;;;;5035645;28;20499;-60
2022/08/22 05:26:37;;;;;;;7.77;6.20;;;18.10;99.40;;;;;;5035839;28;20536;-60
2022/08/22 05:29:09;;;;;;;6.40;5.77;;;18.10;99.00;;;;;;5036178;28;20477;-60
2022/08/22 05:31:41;;;;;;;10.50;6.67;;;18.10;98.70;;;;;;5034272;28;20488;-60
2022/08/22 05:34:13;;;;;;;9.50;6.43;;;18.10;98.40;;;;;;5032717;28;20948;-60
2022/08/22 05:36:45;;;;;;;7.93;6.67;;;18.00;98.60;;;;;;5031642;28;20437;-59
2022/08/22 05:39:17;;;;;;;8.20;6.60;;;18.00;98.20;;;;;;5016006;28;20438;-60
2022/08/22 05:41:44;;;;;;;10.80;6.20;;;17.90;98.10;;;;;;5015339;28;20466;-60
2022/08/22 05:44:21;;;;;;;9.10;6.10;;;17.90;98.00;;;;;;5034174;28;20504;-59
2022/08/22 05:46:55;;;;;;;9.73;6.37;;;17.90;98.00;;;;;;5035319;28;20432;-59
2022/08/22 05:49:32;;;;;;;9.60;6.03;;;17.80;97.90;;;;;;5034908;28;20515;-60
2022/08/22 05:52:09;;;;;;;7.67;5.20;;;17.80;97.80;;;;;;5030870;28;20481;-59
2022/08/22 05:54:48;;;;;;;17.20;6.13;;;17.80;97.60;;;;;;5035182;28;20437;-59
2022/08/22 05:57:24;;;;;;;9.70;5.50;;;17.80;97.40;;;;;;5035425;28;20429;-59
2022/08/22 06:00:00;;;;;;;6.20;5.07;;;17.80;97.20;;;;;;5035076;28;20484;-59
2022/08/22 06:02:44;;;;;;;8.50;5.13;;;17.80;97.20;;;;;;5033705;28;20429;-60
2022/08/22 06:05:12;;;;;;;10.70;6.00;;;17.80;97.00;;;;;;5033177;28;20949;-59
2022/08/22 06:07:44;;;;;;;8.23;5.40;;;17.80;97.00;;;;;;5032894;28;20595;-59
2022/08/22 06:10:24;;;;;;;5.67;5.07;;;17.80;97.00;;;;;;5030642;28;20469;-59
2022/08/22 06:12:58;;;;;;;13.67;5.90;;;17.90;96.80;;;;;;5032787;28;20464;-57
2022/08/22 06:15:34;;;;;;;7.20;5.33;;;17.90;96.50;;;;;;5035201;28;20503;-60
2022/08/22 06:18:05;;;;;;;6.00;5.40;;;18.00;96.40;;;;;;5038307;28;20520;-59
2022/08/22 06:20:38;;;;;;;6.33;5.33;;;18.10;96.20;;;;;;5036960;28;20984;-58
2022/08/22 06:23:07;;;;;;;9.40;5.67;;;18.10;96.00;;;;;;5034498;28;20476;-59
2022/08/22 06:25:39;;;;;;;6.17;5.13;;;18.30;95.70;;;;;;5034552;28;20543;-60
2022/08/22 06:28:09;;;;;;;5.93;4.43;;;18.30;95.40;;;;;;5033818;28;20500;-58
2022/08/22 06:30:39;;;;;;;8.53;5.23;;;18.40;95.10;;;;;;5034066;28;20566;-60
2022/08/22 06:33:11;;;;;;;13.97;5.03;;;18.40;94.90;;;;;;5036031;28;20471;-61
2022/08/22 06:38:54;;;;;;;8.10;5.70;;;18.60;94.10;;;;;;4973282;28;20420;-58
2022/08/22 06:41:25;;;;;;;8.20;5.67;;;18.70;93.70;;;;;;5037012;28;20480;-59
2022/08/22 06:43:54;;;;;;;6.40;5.40;;;18.80;93.30;;;;;;5034029;28;20425;-60
2022/08/22 06:46:26;;;;;;;7.97;5.40;;;18.90;93.00;;;;;;5037837;28;20535;-59
2022/08/22 06:48:55;;;;;;;6.00;5.40;;;19.00;92.70;;;;;;5047319;28;20559;-60
2022/08/22 06:51:26;;;;;;;7.97;5.97;;;19.00;92.40;;;;;;5035474;28;20517;-60
2022/08/22 06:53:57;;;;;;;6.00;5.47;;;19.10;92.00;;;;;;5033668;28;20479;-60
2022/08/22 06:56:28;;;;;;;6.37;5.17;;;19.20;91.80;;;;;;5034879;28;20557;-61
2022/08/22 06:59:00;;;;;;;6.00;5.50;;;19.30;91.50;;;;;;5032585;28;20488;-60
2022/08/22 07:01:33;;;;;;;6.83;4.70;;;19.30;91.20;;;;;;5040949;28;20570;-59
2022/08/22 07:04:06;;;;;;;6.43;4.80;;;19.40;91.10;;;;;;5038438;28;20512;-60
2022/08/22 07:06:36;;;;;;;5.60;4.40;;;19.50;90.80;;;;;;5017403;28;20559;-60
2022/08/22 07:09:05;;;;;;;5.73;4.80;;;19.50;90.40;;;;;;5041329;28;20542;-60
2022/08/22 07:11:37;;;;;;;4.63;4.33;;;19.50;90.30;;;;;;5052847;28;20514;-60
2022/08/22 07:14:10;;;;;;;8.63;4.83;;;19.60;90.10;;;;;;5035604;28;20949;-59
2022/08/22 07:16:43;;;;;;;5.83;4.67;;;19.60;90.00;;;;;;5048090;28;20543;-61
2022/08/22 07:19:23;;;;;;;5.30;4.80;;;19.70;89.50;;;;;;5022500;28;20818;-60
2022/08/22 07:21:50;;;;;;;4.90;4.40;;;19.70;89.00;;;;;;5042137;28;20477;-60
2022/08/22 07:24:23;;;;;;;7.80;4.70;;;19.80;88.40;;;;;;5032510;28;20457;-60
2022/08/22 07:27:07;;;;;;;6.20;4.77;;;19.90;88.00;;;;;;5033040;28;20869;-60
2022/08/22 07:29:43;;;;;;;8.03;4.70;;;20.10;87.20;;;;;;5034511;28;20479;-62
2022/08/22 07:32:17;;;;;;;6.80;4.33;;;20.30;86.30;;;;;;5051666;28;20558;-59
2022/08/22 07:35:01;;;;;;;5.50;4.00;;;20.40;85.10;;;;;;5043768;28;20457;-59
2022/08/22 07:37:42;;;;;;;5.77;4.73;;;20.50;84.40;;;;;;5037441;28;20467;-60
2022/08/22 07:40:19;;;;;;;5.57;4.10;;;20.70;83.40;;;;;;5032606;28;20536;-59
2022/08/22 07:42:50;;;;;;;5.70;4.07;;;20.80;82.30;;;;;;5039953;28;20452;-60
2022/08/22 07:45:31;;;;;;;7.50;3.87;;;20.90;81.60;;;;;;5051860;28;20982;-60
2022/08/22 07:48:13;;;;;;;5.30;4.43;;;21.00;80.40;;;;;;5046205;28;20912;-58
2022/08/22 07:50:47;;;;;;;7.67;3.80;;;21.10;79.40;;;;;;5024813;28;20547;-58
2022/08/22 07:53:25;;;;;;;4.90;3.57;;;21.20;78.30;;;;;;5040695;28;20462;-59
2022/08/22 07:55:54;;;;;;;5.33;4.17;;;21.30;77.40;;;;;;5030893;28;20460;-60
2022/08/22 07:58:25;;;;;;;8.63;4.20;;;21.40;76.20;;;;;;5051671;28;20461;-60
2022/08/22 08:00:54;;;;;;;6.80;4.37;;;21.50;75.20;;;;;;5035591;28;20543;-59
2022/08/22 08:03:25;;;;;;;5.67;4.10;;;21.60;74.30;;;;;;5040549;28;20525;-59
2022/08/22 08:05:54;;;;;;;4.87;3.90;;;21.70;73.70;;;;;;5062786;28;20513;-70
2022/08/22 08:08:25;;;;;;;4.80;3.20;;;21.80;73.10;;;;;;5056196;28;20482;-59
2022/08/22 08:10:56;;;;;;;4.47;2.93;;;21.90;72.40;;;;;;5052570;28;20834;-60
2022/08/22 08:13:28;;;;;;;6.00;3.27;;;22.00;71.60;;;;;;5051291;28;20467;-59
2022/08/22 08:15:55;;;;;;;4.10;2.83;;;22.20;70.40;;;;;;5052639;28;20966;-59
2022/08/22 08:18:27;;;;;;;5.93;3.40;;;22.40;68.80;;;;;;5049186;28;20661;-60
2022/08/22 08:20:59;;;;;;;5.03;3.37;;;22.60;67.30;;;;;;5043109;28;21029;-57
2022/08/22 08:23:30;;;;;;;4.57;3.27;;;22.70;66.00;;;;;;5039959;28;20526;-57
2022/08/22 08:26:05;;;;;;;4.03;2.80;;;22.80;65.00;;;;;;5045050;28;20468;-60
2022/08/22 08:28:37;;;;;;;4.77;3.30;;;23.00;63.90;;;;;;5036616;28;20492;-60
2022/08/22 08:31:09;;;;;;;7.03;3.00;;;23.10;62.90;;;;;;5032030;28;20840;-57
2022/08/22 08:33:42;;;;;;;5.27;3.10;;;23.20;62.20;;;;;;5032310;28;20495;-57
2022/08/22 08:36:24;;;;;;;5.13;2.70;;;23.40;61.20;;;;;;5033026;28;20860;-59
2022/08/22 08:38:59;;;;;;;4.50;3.07;;;23.60;60.50;;;;;;5032511;28;20508;-59
2022/08/22 08:41:50;;;;;;;4.30;2.80;;;23.70;59.90;;;;;;5032618;28;20563;-58
2022/08/22 08:44:36;;;;;;;2.83;2.50;;;23.80;59.10;;;;;;5033286;28;20434;-59
2022/08/22 08:47:19;;;;;;;7.13;3.50;;;23.90;58.50;;;;;;5032560;28;20453;-58
2022/08/22 08:50:10;;;;;;;7.33;2.80;;;24.10;58.00;;;;;;5037021;28;20923;-59
2022/08/22 08:52:57;;;;;;;5.47;3.23;;;24.20;57.00;;;;;;5034466;28;20869;-60
2022/08/22 08:55:37;;;;;;;3.10;2.73;;;24.20;56.70;;;;;;5041842;28;20955;-58
2022/08/22 08:58:23;;;;;;;2.53;2.33;;;24.40;56.50;;;;;;5034131;28;20899;-61
2022/08/22 09:00:56;;;;;;;10.17;3.07;;;24.60;56.00;;;;;;5037822;28;21055;-59
2022/08/22 09:04:00;;;;;;;4.50;2.53;;;24.70;55.30;;;;;;5054260;28;20878;-60
2022/08/22 09:06:56;;;;;;;4.47;2.67;;;24.70;54.70;;;;;;5054762;28;20546;-59
2022/08/22 09:09:39;;;;;;;4.30;2.70;;;24.80;54.30;;;;;;5035149;28;20484;-59
2022/08/22 09:12:33;;;;;;;5.60;3.57;;;24.90;53.70;;;;;;5051307;28;20505;-63
2022/08/22 09:15:21;;;;;;;5.67;2.57;;;24.90;53.40;;;;;;5036236;28;20469;-60
2022/08/22 09:18:20;;;;;;;4.20;2.40;;;25.00;53.10;;;;;;5053415;28;20839;-61
2022/08/22 09:21:11;;;;;;;3.13;2.40;;;25.10;52.60;;;;;;5016522;28;20564;-58
2022/08/22 09:24:10;;;;;;;4.30;2.33;;;25.30;52.00;;;;;;5035942;28;20552;-60
2022/08/22 09:26:47;;;;;;;4.33;2.50;;;25.30;51.20;;;;;;5002141;28;20449;-59
2022/08/22 09:29:38;;;;;;;4.03;2.80;;;25.50;51.00;;;;;;5034578;28;20456;-60
2022/08/22 09:32:15;;;;;;;4.37;2.23;;;25.50;50.60;;;;;;5034411;28;20483;-57
2022/08/22 09:34:55;;;;;;;3.30;2.40;;;25.60;50.20;;;;;;5035444;28;20477;-60
2022/08/22 09:37:33;;;;;;;3.30;2.40;;;25.70;50.00;;;;;;5034561;28;20438;-59
2022/08/22 09:40:08;;;;;;;3.60;2.30;;;25.70;49.60;;;;;;5043882;28;20457;-60
2022/08/22 09:42:44;;;;;;;4.50;2.40;;;25.80;49.30;;;;;;5054776;28;20971;-59
2022/08/22 09:45:40;;;;;;;4.67;2.27;;;25.70;48.70;;;;;;5055145;28;20507;-60
2022/08/22 09:48:20;;;;;;;4.07;2.43;;;25.70;48.80;;;;;;5054349;28;20947;-60
2022/08/22 09:50:51;;;;;;;3.73;2.20;;;25.90;48.60;;;;;;5036296;28;20575;-59
2022/08/22 09:53:50;;;;;;;4.70;2.60;;;26.00;47.90;;;;;;5035015;28;20848;-59
2022/08/22 09:56:26;;;;;;;4.30;2.90;;;26.20;47.70;;;;;;5015606;28;20451;-58
2022/08/22 09:59:01;;;;;;;2.70;2.20;;;26.40;47.40;;;;;;5044776;28;20781;-58
2022/08/22 10:01:32;;;;;;;4.40;2.53;;;26.50;46.80;;;;;;5039813;28;20553;-58
2022/08/22 10:04:36;;;;;;;4.50;2.87;;;26.60;46.60;;;;;;5048652;28;20472;-58
2022/08/22 10:07:12;;;;;;;4.43;2.37;;;26.70;46.00;;;;;;5054216;28;21022;-59
2022/08/22 10:09:52;;;;;;;6.70;2.83;;;26.70;45.50;;;;;;5054237;28;20510;-58
2022/08/22 10:12:28;;;;;;;5.63;2.47;;;26.80;45.10;;;;;;5053753;28;20436;-63
2022/08/22 10:15:10;;;;;;;2.63;2.37;;;26.80;44.70;;;;;;5031290;28;20539;-59
2022/08/22 10:17:43;;;;;;;3.67;2.80;;;26.80;44.70;;;;;;5038772;28;21001;-60
2022/08/22 10:20:19;;;;;;;3.80;2.77;;;26.90;44.70;;;;;;5028466;28;20554;-60
2022/08/22 10:22:58;;;;;;;5.47;3.13;;;27.10;44.40;;;;;;5052859;28;20464;-58
2022/08/22 10:25:38;;;;;;;4.73;2.80;;;27.10;43.70;;;;;;5053509;28;20517;-58
2022/08/22 10:28:16;;;;;;;4.50;3.23;;;27.10;43.10;;;;;;5053811;28;20467;-59
2022/08/22 10:30:53;;;;;;;6.33;2.83;;;27.10;43.00;;;;;;5079469;22;20540;-63
2022/08/22 10:33:27;;;;;;;3.33;3.03;;;27.10;43.10;;;;;;5054072;28;20530;-64
2022/08/22 10:36:02;;;;;;;4.60;3.20;;;27.10;42.90;;;;;;5054557;28;20518;-62
2022/08/22 10:38:34;;;;;;;3.70;2.20;;;27.20;42.60;;;;;;5054111;28;20918;-61
2022/08/22 10:41:07;;;;;;;5.87;2.77;;;27.30;42.30;;;;;;5054022;28;20464;-62
2022/08/22 10:43:43;;;;;;;2.40;2.00;;;27.40;41.90;;;;;;5054284;28;20788;-63
2022/08/22 10:46:15;;;;;;;3.57;2.50;;;27.50;41.60;;;;;;5054197;28;20439;-60
2022/08/22 10:48:48;;;;;;;4.90;2.67;;;27.70;41.50;;;;;;5053864;28;20439;-60
2022/08/22 10:51:36;;;;;;;4.03;1.97;;;28.00;41.10;;;;;;5053674;28;20573;-61
2022/08/22 10:54:42;;;;;;;3.97;2.50;;;28.20;40.00;;;;;;5053687;28;20833;-61
2022/08/22 10:57:23;;;;;;;3.50;2.20;;;28.30;39.30;;;;;;5049029;28;20455;-60
2022/08/22 10:59:59;;;;;;;2.47;2.13;;;28.50;38.70;;;;;;5053793;28;20482;-60
2022/08/22 11:02:48;;;;;;;5.50;2.50;;;28.70;38.00;;;;;;5053544;28;20484;-62
2022/08/22 11:05:26;;;;;;;2.63;1.90;;;28.80;37.50;;;;;;5053687;28;20479;-62
2022/08/22 11:08:05;;;;;;;3.67;2.10;;;28.90;36.70;;;;;;5053979;28;20456;-61
2022/08/22 11:10:48;;;;;;;2.37;2.00;;;29.00;36.30;;;;;;5053584;28;20991;-59
2022/08/22 11:13:22;;;;;;;2.43;2.07;;;29.00;36.00;;;;;;5053822;28;20532;-60
2022/08/22 11:16:27;;;;;;;2.30;2.10;;;28.90;35.60;;;;;;5053261;28;20475;-61
2022/08/22 11:19:14;;;;;;;2.90;2.10;;;28.70;35.50;;;;;;5053614;28;20492;-60
2022/08/22 11:21:52;;;;;;;3.10;1.80;;;28.60;35.30;;;;;;5053277;28;20543;-60
2022/08/22 11:24:48;;;;;;;3.63;2.37;;;28.50;35.50;;;;;;5053193;28;20459;-61
2022/08/22 11:27:25;;;;;;;6.00;2.43;;;28.40;35.70;;;;;;5053202;28;21009;-59
2022/08/22 11:30:02;;;;;;;3.90;2.40;;;28.50;35.70;;;;;;5053123;28;20430;-62
2022/08/22 11:32:36;;;;;;;3.70;1.83;;;28.70;35.70;;;;;;5053452;28;20480;-61
2022/08/22 11:35:07;;;;;;;4.30;2.27;;;28.80;35.40;;;;;;5053038;28;20437;-62
2022/08/22 11:37:46;;;;;;;2.00;1.70;;;28.90;35.10;;;;;;5053270;28;20446;-63
2022/08/22 11:40:36;;;;;;;3.50;1.87;;;29.00;35.10;;;;;;5053776;28;20429;-62
2022/08/22 11:43:19;;;;;;;3.43;2.00;;;29.10;35.00;;;;;;5051308;28;20469;-62
2022/08/22 11:45:50;;;;;;;4.90;1.63;;;29.20;34.70;;;;;;5053728;28;20960;-61
2022/08/22 11:48:25;;;;;;;6.13;2.00;;;29.20;34.60;;;;;;5053906;28;20484;-63
2022/08/22 11:51:03;;;;;;;3.33;2.00;;;29.50;34.70;;;;;;5052937;28;20485;-62
2022/08/22 11:53:38;;;;;;;2.13;2.03;;;29.90;34.30;;;;;;5052981;28;20543;-62
2022/08/22 11:56:19;;;;;;;4.53;2.83;;;30.20;33.60;;;;;;5053368;28;20527;-61
2022/08/22 11:58:56;;;;;;;5.23;2.10;;;30.50;33.10;;;;;;5052925;28;20463;-61
2022/08/22 12:01:28;;;;;;;3.67;1.90;;;30.60;32.50;;;;;;5054712;28;20469;-62
2022/08/22 12:04:09;;;;;;;2.70;2.20;;;30.60;32.30;;;;;;5053508;28;20518;-60
2022/08/22 12:06:58;;;;;;;2.17;1.80;;;31.00;31.90;;;;;;5052985;28;20436;-61
2022/08/22 12:09:43;;;;;;;2.90;2.20;;;31.50;31.50;;;;;;5052805;28;20524;-61
2022/08/22 12:12:45;;;;;;;4.37;1.83;;;31.80;31.40;;;;;;5052472;28;20493;-62
2022/08/22 12:15:20;;;;;;;3.40;2.67;;;31.60;31.60;;;;;;5047664;28;20467;-61
2022/08/22 12:18:12;;;;;;;4.40;2.10;;;31.20;32.20;;;;;;5052178;28;20427;-62
2022/08/22 12:21:11;;;;;;;3.90;2.13;;;30.80;32.70;;;;;;5052544;28;20446;-60
2022/08/22 12:24:01;;;;;;;2.73;2.00;;;30.50;33.00;;;;;;5052349;28;20433;-62
2022/08/22 12:26:34;;;;;;;4.27;2.30;;;30.70;32.90;;;;;;5052590;28;20534;-62
2022/08/22 12:29:22;;;;;;;3.73;2.03;;;31.10;32.20;;;;;;5052556;28;20458;-62
2022/08/22 12:32:23;;;;;;;4.47;2.10;;;31.20;31.70;;;;;;5056514;28;20986;-61
2022/08/22 12:34:59;;;;;;;3.90;2.40;;;31.00;31.70;;;;;;5055896;28;20485;-61
2022/08/22 12:37:36;;;;;;;2.83;2.10;;;30.90;32.50;;;;;;5056515;28;20437;-61
2022/08/22 12:40:23;;;;;;;3.47;1.77;;;30.60;31.80;;;;;;5056760;28;20507;-61
2022/08/22 12:43:15;;;;;;;4.23;1.80;;;30.40;32.10;;;;;;5056606;28;20477;-60
2022/08/22 12:46:08;;;;;;;4.07;2.10;;;30.10;32.30;;;;;;5056500;28;20492;-61
2022/08/22 12:49:14;;;;;;;3.63;2.07;;;29.90;32.40;;;;;;5056684;28;20480;-61
2022/08/22 12:51:57;;;;;;;3.17;2.00;;;29.80;32.40;;;;;;5020446;28;20926;-60
2022/08/22 12:54:48;;;;;;;3.93;2.10;;;29.70;32.40;;;;;;5056510;28;20446;-61
2022/08/22 12:57:26;;;;;;;2.50;1.83;;;29.60;32.70;;;;;;5056218;28;20541;-62
2022/08/22 12:59:59;;;;;;;7.60;2.57;;;29.60;33.00;;;;;;5056055;28;20437;-61
2022/08/22 13:02:30;;;;;;;1.93;1.73;;;29.60;32.90;;;;;;5055852;28;20573;-62
2022/08/22 13:04:59;;;;;;;3.10;2.10;;;29.60;32.80;;;;;;5055785;28;20432;-62
2022/08/22 13:07:30;;;;;;;3.10;2.10;;;29.50;32.90;;;;;;5056084;28;20539;-60
2022/08/22 13:10:03;;;;;;;3.40;2.00;;;29.40;33.00;;;;;;5056127;28;20439;-62
2022/08/22 13:12:33;;;;;;;3.00;2.10;;;29.50;33.10;;;;;;5055503;28;20532;-61
2022/08/22 13:15:13;;;;;;;2.67;2.00;;;29.50;32.80;;;;;;5055716;28;20914;-62
2022/08/22 13:17:43;;;;;;;3.07;2.23;;;29.60;32.80;;;;;;5055304;28;20436;-62
2022/08/22 13:20:20;;;;;;;3.87;2.30;;;29.60;32.70;;;;;;5055455;28;20498;-60
2022/08/22 13:22:48;;;;;;;2.87;1.90;;;29.50;32.50;;;;;;5055692;28;20553;-62
2022/08/22 13:25:24;;;;;;;2.47;2.00;;;29.50;32.50;;;;;;5055736;28;20492;-61
2022/08/22 13:27:53;;;;;;;3.37;1.80;;;29.40;32.30;;;;;;5055539;28;20440;-60
2022/08/22 13:30:25;;;;;;;7.20;1.90;;;29.40;32.30;;;;;;5055670;28;20544;-63
2022/08/22 13:32:55;;;;;;;3.30;2.23;;;29.40;32.20;;;;;;5055445;28;20489;-61
2022/08/22 13:35:30;;;;;;;6.60;2.30;;;29.40;32.10;;;;;;5055686;28;20485;-63
2022/08/22 13:38:06;;;;;;;2.13;1.80;;;29.40;31.80;;;;;;5058479;28;20959;-62
2022/08/22 13:40:36;;;;;;;7.07;2.17;;;29.40;31.70;;;;;;5055441;28;20462;-62
2022/08/22 13:43:10;;;;;;;4.10;2.30;;;29.30;31.70;;;;;;5055401;28;20534;-61
2022/08/22 13:45:39;;;;;;;8.83;2.40;;;29.30;31.70;;;;;;5055448;28;20447;-62
2022/08/22 13:48:11;;;;;;;3.40;2.33;;;29.40;31.70;;;;;;5056063;28;20541;-62
2022/08/22 13:50:56;;;;;;;4.60;2.77;;;29.60;31.70;;;;;;5055650;28;20767;-62
2022/08/22 13:53:31;;;;;;;7.10;2.00;;;29.70;31.30;;;;;;5055456;28;20529;-59